Tropical Cyclones
[Index]
Main Index Home Page Stock Weather Photos Extreme Storms Discussion Storm News and Storm Chasing Reports Tropical Cyclones / Hurricanes / Typhoons Weather Data and Links Wild Fires / Bushfires Weather Observation Techniques Weather Picture Catalogue Tornado Pictures and Reports Stock Video Footage and DVDs for sale
Season 2005-2006 Tropical Cyclone BERTIE-ALVIN Track Map
Season 2005-2006 Summaries (Operational Data): [AU] [SIO] [SPAC] [SH]
<<- Previous TC | 2005-2006 Season | Next TC ->>

click for intensity scale information  Lat/long Grid: Show Hide

 Date Labels: Show Hide

Operational Tropical Cyclone Data : JTWC Advisories | BoM Warnings

Name: BERTIE-ALVIN
Number: 0603

18 Nov 2005 04:00 UTC to 28 Nov 2005 12:00 UTC

    date/time    lat    long     hPa   cat  kts
2005-11-18 04    3.5    94.0    1005         25          
2005-11-18 12    4.1    93.6    1003         25          
2005-11-18 18    5.3    94.2    1001         30          
2005-11-19 00    5.5    94.5     995    1    40          
2005-11-19 06    6.2    94.3     995    1    40          
2005-11-19 12    6.8    93.8     990    1    40          
2005-11-19 18    7.2    93.6     985    1    45          
2005-11-20 00    7.8    93.4     985    2    50          
2005-11-20 06    8.0    93.3     980    2    55          
2005-11-20 12    8.4    93.4     980    2    55          
2005-11-20 18    8.8    93.2     975    2    60          
2005-11-21 00    8.9    93.0     965    3    70          
2005-11-21 06    9.7    92.1     960    3    75          
2005-11-21 12   10.2    91.7     960    3    75          
2005-11-21 18   10.3    91.7     960    3    75          
2005-11-22 00   10.9    90.9     965    3    70          
2005-11-22 06   11.8    90.5     955    3    80          
2005-11-22 12   11.9    90.4     945    3    85          
2005-11-22 18   12.1    90.3     930    4   100          
2005-11-23 00   12.5    90.3     930    4   100          
2005-11-23 06   12.9    90.3     930    4   100          
2005-11-23 12   13.4    90.3     930    4   100          
2005-11-23 18   13.9    90.1     930    4   100          
2005-11-24 00   14.3    89.9     935    4    95          
2005-11-24 06   14.6    89.8     935    4    95          
2005-11-24 12   14.7    89.7     935    4    95          
2005-11-24 18   14.8    89.4     945    3    85          
2005-11-25 00   14.7    89.2     955    3    80          
2005-11-25 06   14.4    88.6     980    2    55          
2005-11-25 12   14.3    88.3     987    1    45          
2005-11-25 18   14.0    87.7     990    1    45          
2005-11-26 00   13.8    87.2     995    1    35          
2005-11-26 06   13.9    86.6     996    1    35          
2005-11-26 12   13.8    86.1     997         30          
2005-11-26 18   13.3    85.1     998         30          
2005-11-27 00   13.1    84.7     998         30          
2005-11-27 06   12.7    83.9     998         30          
2005-11-27 12   12.9    83.9     998         30          
2005-11-27 18   12.4    83.3     999         25          
2005-11-28 00   12.3    83.3     999         25          
2005-11-28 06   12.5    83.3    1000         25          
2005-11-28 12   13.0    82.5    1000         25          
Winds are 10-min average.

Tropical cyclone tracks developed by Michael Bath using operational warnings and advisories and Google Maps.


[Australian Severe Weather index] [Copyright Notice] [Email Contacts] [Search This Site] [Privacy Policy]
Document: tropical_cyclone_bertie-alvin.htm Updated: 28 May 2013